»·PEaware :: N333ZA KSBP-KBFL

N333ZA :: KSBP-KBFL

FLIGHT INFORMATION

Flight Status: Arrived
Operator: Privately registered:
United States
More flights under this callsign
Pilot: Judd H. (29974)
Aircraft: CESSNA 210 CENTURION
(C210)
More flights by this aircraft type
Origin: KSBP San Luis Co Regl
United States
Destination: KBFL Meadows
United States
More flights between these airports :: More routes between these airports
Route: MQO EHF
File this flight plan on PilotEdge
Remarks:
Altitude:
(Current/Filed)
11,000ft
Speed:
(Current/Filed)
150kts
Departed: 26-Oct-20 12:38 PM
Arrived: 26-Oct-20 01:28 PM
Distance/Time
Traveled:
79nm/0:50
Distance/Time
To Go:
Arrived

Flight Plot

Page will automatically refresh every two minutes.


Map Options




Map Legend


Flown Route
Filed Route
Departure Airport
Arrival Airport
Navaid (VOR, NDB)
Fix

Horizontal Profiles

Position Reports

Time Latitude Longitude Heading Altitude Ground
Speed
26-Oct-20 12:20 35.238272 -120.638661 270 215ft 0kts
26-Oct-20 12:21 35.238272 -120.638661 270 215ft 0kts
26-Oct-20 12:22 35.238272 -120.638661 270 215ft 0kts
26-Oct-20 12:23 35.238272 -120.638661 270 215ft 0kts
26-Oct-20 12:24 35.238293 -120.638885 276 215ft 0kts
26-Oct-20 12:25 35.238293 -120.638885 276 215ft 0kts
26-Oct-20 12:26 35.238293 -120.638885 276 215ft 0kts
26-Oct-20 12:27 35.238293 -120.638885 276 215ft 0kts
26-Oct-20 12:27 35.238293 -120.638885 276 215ft 0kts
26-Oct-20 12:29 35.238293 -120.638885 276 215ft 0kts
26-Oct-20 12:29 35.238293 -120.638885 276 215ft 0kts
26-Oct-20 12:31 35.238293 -120.638885 276 215ft 0kts
26-Oct-20 12:32 35.238293 -120.638885 276 215ft 0kts
26-Oct-20 12:32 35.237305 -120.637752 138 215ft 5kts
26-Oct-20 12:34 35.235417 -120.635739 123 215ft 10kts
26-Oct-20 12:34 35.233785 -120.632851 128 215ft 12kts
26-Oct-20 12:35 35.233411 -120.632446 204 215ft 4kts
26-Oct-20 12:36 35.232940 -120.633316 303 215ft 0kts
26-Oct-20 12:37 35.237649 -120.641575 307 323ft 85kts
26-Oct-20 12:38 35.253078 -120.669240 306 1020ft 99kts
26-Oct-20 12:39 35.269082 -120.701574 301 1837ft 124kts
26-Oct-20 12:40 35.286904 -120.739726 298 3228ft 134kts
26-Oct-20 12:41 35.304852 -120.778801 298 4286ft 128kts
26-Oct-20 12:42 35.306264 -120.818480 212 5200ft 136kts
26-Oct-20 12:43 35.268175 -120.824987 177 6220ft 128kts
26-Oct-20 12:44 35.251048 -120.791970 93 7260ft 122kts
26-Oct-20 12:45 35.251802 -120.750025 79 8243ft 127kts
26-Oct-20 12:46 35.260507 -120.705343 71 9041ft 136kts
26-Oct-20 12:47 35.270354 -120.663160 70 10183ft 118kts
26-Oct-20 12:48 35.276381 -120.624094 75 11001ft 131kts
26-Oct-20 12:49 35.283462 -120.572370 79 11074ft 171kts
26-Oct-20 12:50 35.290962 -120.512257 79 11064ft 181kts
26-Oct-20 12:51 35.298611 -120.452191 79 11057ft 177kts
26-Oct-20 12:52 35.307406 -120.390830 77 11019ft 189kts
26-Oct-20 12:53 35.316747 -120.330122 77 11061ft 177kts
26-Oct-20 12:54 35.325923 -120.271714 79 11065ft 172kts
26-Oct-20 12:55 35.334112 -120.213883 79 11067ft 172kts
26-Oct-20 12:56 35.342359 -120.156291 79 11069ft 171kts
26-Oct-20 12:57 35.350936 -120.099363 79 11060ft 166kts
26-Oct-20 12:58 35.359642 -120.044020 79 11063ft 166kts
26-Oct-20 12:59 35.370077 -119.985938 78 10924ft 190kts
26-Oct-20 13:00 35.382403 -119.923240 78 11010ft 192kts
26-Oct-20 13:01 35.395037 -119.859262 78 10964ft 191kts
26-Oct-20 13:02 35.406505 -119.796724 80 10948ft 183kts
26-Oct-20 13:03 35.415163 -119.735446 87 10938ft 182kts
26-Oct-20 13:04 35.419769 -119.673321 85 10890ft 183kts
26-Oct-20 13:05 35.424851 -119.612474 80 11007ft 175kts
26-Oct-20 13:06 35.433534 -119.554006 79 10987ft 176kts
26-Oct-20 13:07 35.441800 -119.492608 78 10312ft 202kts
26-Oct-20 13:08 35.447886 -119.435208 83 9348ft 144kts
26-Oct-20 13:09 35.451086 -119.387139 81 7961ft 135kts
26-Oct-20 13:10 35.455504 -119.341934 78 6733ft 129kts
26-Oct-20 13:11 35.463379 -119.295130 79 5905ft 144kts
26-Oct-20 13:12 35.469245 -119.246413 80 4974ft 147kts
26-Oct-20 13:13 35.475429 -119.197562 77 4063ft 139kts
26-Oct-20 13:14 35.480833 -119.151947 81 3436ft 132kts
26-Oct-20 13:15 35.483702 -119.120791 81 3291ft 120kts
26-Oct-20 13:16 35.472155 -119.083456 137 3145ft 134kts
26-Oct-20 13:17 35.444199 -119.053663 143 3129ft 130kts
26-Oct-20 13:18 35.415434 -119.024722 138 3205ft 141kts
26-Oct-20 13:19 35.385395 -118.991795 136 3128ft 148kts
26-Oct-20 13:20 35.351726 -118.965106 166 2957ft 150kts
26-Oct-20 13:21 35.315175 -118.945969 107 2686ft 139kts
26-Oct-20 13:22 35.336334 -118.935185 317 2538ft 110kts
26-Oct-20 13:23 35.356529 -118.961217 314 2397ft 102kts
26-Oct-20 13:24 35.376758 -118.987227 313 2080ft 111kts
26-Oct-20 13:25 35.398717 -119.013964 317 1483ft 104kts
26-Oct-20 13:26 35.418907 -119.038213 315 858ft 96kts
26-Oct-20 13:27 35.435919 -119.058811 316 510ft 40kts
26-Oct-20 13:28 35.438220 -119.059122 136 510ft 16kts
26-Oct-20 13:29 35.432829 -119.052641 134 510ft 22kts
26-Oct-20 13:30 35.433380 -119.051638 155 510ft 0kts
26-Oct-20 13:31 35.433380 -119.051638 155 510ft 0kts

Navigation Log

Ident Type
Flight plan parsing failed, navigation log unavailable